createdAt,value
2023-04-29T00:01:44.024Z,99826.13
2023-04-29T00:04:11.717Z,99823.09
2023-04-29T00:06:38.993Z,99823.38
2023-04-29T00:09:08.539Z,99825.13
2023-04-29T00:11:35.959Z,99815.38
2023-04-29T00:14:03.326Z,99814.97
2023-04-29T00:16:30.463Z,99811.09
2023-04-29T00:18:57.910Z,99811.44
2023-04-29T00:21:27.416Z,99808.69
2023-04-29T00:23:54.561Z,99809.06
2023-04-29T00:26:21.974Z,99807.72
2023-04-29T00:28:49.270Z,99805.13
2023-04-29T00:31:16.527Z,99809.81
2023-04-29T00:33:44.038Z,99809.22
2023-04-29T00:36:11.252Z,99809.84
2023-04-29T00:38:38.456Z,99813.94
2023-04-29T00:41:05.931Z,99822.69
2023-04-29T00:43:33.039Z,99821.62
2023-04-29T00:46:00.252Z,99821.69
2023-04-29T00:48:27.666Z,99830.75
2023-04-29T00:50:54.834Z,99819.66
2023-04-29T00:53:23.253Z,99827.59
2023-04-29T00:55:51.739Z,99824.22
2023-04-29T00:58:19.607Z,99815.59
2023-04-29T01:00:47.109Z,99828.03
2023-04-29T01:03:15.118Z,99819.94
2023-04-29T01:05:42.653Z,99812.25
2023-04-29T01:08:17.882Z,99817.06
2023-04-29T01:10:49.837Z,99821.34
2023-04-29T01:13:18.058Z,99817.63
2023-04-29T01:16:03.822Z,99820.34
2023-04-29T01:18:39.349Z,99816.28
2023-04-29T01:21:06.930Z,99809.28
2023-04-29T01:23:34.131Z,99813.00
2023-04-29T01:26:01.412Z,99807.69
2023-04-29T01:28:38.739Z,99809.38
2023-04-29T01:31:09.657Z,99810.28
2023-04-29T01:33:51.494Z,99809.81
2023-04-29T01:36:37.376Z,99801.06
2023-04-29T01:39:20.355Z,99801.16
2023-04-29T01:41:52.219Z,99790.44
2023-04-29T01:44:20.948Z,99800.44
2023-04-29T01:46:52.465Z,99799.81
2023-04-29T01:49:29.663Z,99797.44
2023-04-29T01:51:56.997Z,99795.56
2023-04-29T01:54:24.935Z,99792.84
2023-04-29T01:56:52.294Z,99799.31
2023-04-29T01:59:20.960Z,99793.84
2023-04-29T02:01:51.621Z,99800.38
2023-04-29T02:04:20.156Z,99793.34
2023-04-29T02:06:47.350Z,99796.47
2023-04-29T02:09:17.477Z,99803.22
2023-04-29T02:11:48.663Z,99799.81
2023-04-29T02:14:15.849Z,99803.66
2023-04-29T02:16:46.468Z,99796.56
2023-04-29T02:19:14.052Z,99802.16
2023-04-29T02:21:41.349Z,99798.28
2023-04-29T02:24:08.530Z,99790.78
2023-04-29T02:26:38.203Z,99796.25
2023-04-29T02:29:05.403Z,99792.78
2023-04-29T02:31:32.805Z,99787.16
2023-04-29T02:34:00.718Z,99791.50
2023-04-29T02:36:28.519Z,99784.50
2023-04-29T02:38:56.378Z,99775.88
2023-04-29T02:41:25.732Z,99774.44
2023-04-29T02:43:53.059Z,99777.91
2023-04-29T02:46:20.482Z,99780.81
2023-04-29T02:48:48.010Z,99785.78
2023-04-29T02:51:15.441Z,99768.69
2023-04-29T02:54:01.338Z,99768.91
2023-04-29T02:56:29.709Z,99768.78
2023-04-29T02:58:57.048Z,99774.53
2023-04-29T03:01:24.414Z,99773.22
2023-04-29T03:03:52.817Z,99773.13
2023-04-29T03:06:20.450Z,99774.56
2023-04-29T03:08:47.623Z,99774.94
2023-04-29T03:11:15.129Z,99775.38
2023-04-29T03:13:42.362Z,99774.56
2023-04-29T03:16:09.925Z,99778.91
2023-04-29T03:18:37.570Z,99789.44
2023-04-29T03:21:05.330Z,99785.84
2023-04-29T03:23:32.617Z,99790.69
2023-04-29T03:26:01.418Z,99790.56
2023-04-29T03:28:28.710Z,99791.62
2023-04-29T03:30:56.977Z,99786.28
2023-04-29T03:33:24.483Z,99782.44
2023-04-29T03:35:51.872Z,99783.12
2023-04-29T03:38:20.761Z,99789.50
2023-04-29T03:40:48.348Z,99783.31
2023-04-29T03:43:16.137Z,99788.94
2023-04-29T03:45:43.492Z,99799.12
2023-04-29T03:48:12.473Z,99804.00
2023-04-29T03:50:40.211Z,99804.41
2023-04-29T03:53:08.296Z,99804.25
2023-04-29T03:55:35.874Z,99809.91
2023-04-29T03:58:03.170Z,99814.53
2023-04-29T04:00:31.367Z,99813.25
2023-04-29T04:02:59.339Z,99813.25
2023-04-29T04:05:27.005Z,99813.75
2023-04-29T04:07:54.646Z,99812.50
2023-04-29T04:10:24.347Z,99814.91
2023-04-29T04:12:51.851Z,99813.44
2023-04-29T04:15:19.097Z,99820.75
2023-04-29T04:17:46.822Z,99809.72
2023-04-29T04:20:14.091Z,99808.16
2023-04-29T04:22:42.319Z,99816.34
2023-04-29T04:25:10.370Z,99815.47
2023-04-29T04:27:37.534Z,99817.59
2023-04-29T04:30:05.714Z,99821.47
2023-04-29T04:32:33.610Z,99815.12
2023-04-29T04:35:00.831Z,99823.78
2023-04-29T04:37:28.409Z,99819.38
2023-04-29T04:39:56.363Z,99823.19
2023-04-29T04:42:23.710Z,99825.47
2023-04-29T04:44:51.550Z,99815.03
2023-04-29T04:47:19.409Z,99820.06
2023-04-29T04:49:46.984Z,99818.19
2023-04-29T04:52:14.231Z,99816.91
2023-04-29T04:54:45.054Z,99812.56
2023-04-29T04:57:12.740Z,99804.19
2023-04-29T04:59:39.944Z,99806.62
2023-04-29T05:02:08.709Z,99804.63
2023-04-29T05:04:35.877Z,99796.38
2023-04-29T05:07:03.101Z,99801.66
2023-04-29T05:09:31.366Z,99802.91
2023-04-29T05:11:59.309Z,99807.38
2023-04-29T05:14:27.934Z,99808.56
2023-04-29T05:16:58.700Z,99801.66
2023-04-29T05:19:26.962Z,99800.66
2023-04-29T05:21:54.495Z,99808.47
2023-04-29T05:24:22.036Z,99810.44
2023-04-29T05:26:51.946Z,99816.69
2023-04-29T05:29:19.745Z,99810.34
2023-04-29T05:31:47.628Z,99816.22
2023-04-29T05:34:15.171Z,99814.72
2023-04-29T05:36:42.495Z,99818.66
2023-04-29T05:39:10.045Z,99820.91
2023-04-29T05:41:37.508Z,99822.47
2023-04-29T05:44:06.363Z,99823.44
2023-04-29T05:46:33.813Z,99824.28
2023-04-29T05:49:00.950Z,99822.72
2023-04-29T05:51:28.427Z,99818.75
2023-04-29T05:53:55.951Z,99822.19
2023-04-29T05:56:23.474Z,99821.44
2023-04-29T05:58:50.715Z,99829.56
2023-04-29T06:01:18.366Z,99830.00
2023-04-29T06:03:46.150Z,99834.94
2023-04-29T06:06:14.519Z,99839.47
2023-04-29T06:08:41.781Z,99830.28
2023-04-29T06:11:11.150Z,99831.00
2023-04-29T06:13:38.356Z,99826.81
2023-04-29T06:16:05.974Z,99823.84
2023-04-29T06:18:33.691Z,99825.63
2023-04-29T06:21:00.853Z,99827.03
2023-04-29T06:23:28.096Z,99828.88
2023-04-29T06:25:56.015Z,99812.47
2023-04-29T06:28:24.188Z,99822.91
2023-04-29T06:30:51.530Z,99821.06
2023-04-29T06:33:19.348Z,99831.25
2023-04-29T06:35:46.583Z,99833.28
2023-04-29T06:38:13.880Z,99830.56
2023-04-29T06:40:41.633Z,99825.34
2023-04-29T06:43:09.045Z,99820.25
2023-04-29T06:45:36.897Z,99826.81
2023-04-29T06:48:04.691Z,99826.22
2023-04-29T06:50:32.351Z,99830.72
2023-04-29T06:52:59.536Z,99829.59
2023-04-29T06:55:27.019Z,99830.97
2023-04-29T06:57:54.278Z,99831.16
2023-04-29T07:00:22.854Z,99833.13
2023-04-29T07:02:50.324Z,99830.06
2023-04-29T07:05:17.539Z,99829.66
2023-04-29T07:07:44.759Z,99829.97
2023-04-29T07:10:12.274Z,99823.25
2023-04-29T07:12:39.731Z,99840.09
2023-04-29T07:15:07.370Z,99840.03
2023-04-29T07:17:34.901Z,99832.94
2023-04-29T07:20:02.255Z,99839.56
2023-04-29T07:22:29.525Z,99839.06
2023-04-29T07:24:57.429Z,99836.66
2023-04-29T07:27:25.095Z,99833.09
2023-04-29T07:29:52.545Z,99830.59
2023-04-29T07:32:20.336Z,99824.66
2023-04-29T07:34:47.750Z,99822.09
2023-04-29T07:37:15.759Z,99820.34
2023-04-29T07:39:43.241Z,99826.94
2023-04-29T07:42:10.973Z,99823.69
2023-04-29T07:44:38.630Z,99816.50
2023-04-29T07:47:06.220Z,99817.78
2023-04-29T07:49:33.439Z,99821.66
2023-04-29T07:52:00.641Z,99819.84
2023-04-29T07:54:28.088Z,99823.97
2023-04-29T07:56:57.608Z,99815.12
2023-04-29T07:59:24.819Z,99828.53
2023-04-29T08:01:52.918Z,99832.16
2023-04-29T08:04:20.653Z,99835.22
2023-04-29T08:06:48.958Z,99835.50
2023-04-29T08:09:16.553Z,99833.59
2023-04-29T08:11:44.911Z,99830.88
2023-04-29T08:14:13.906Z,99835.19
2023-04-29T08:16:41.296Z,99840.00
2023-04-29T08:19:08.800Z,99839.31
2023-04-29T08:21:36.009Z,99838.00
2023-04-29T08:24:03.221Z,99834.75
2023-04-29T08:26:30.677Z,99840.00
2023-04-29T08:28:58.225Z,99832.34
2023-04-29T08:31:26.053Z,99825.91
2023-04-29T08:33:53.996Z,99822.69
2023-04-29T08:36:21.336Z,99836.50
2023-04-29T08:38:49.015Z,99827.91
2023-04-29T08:41:16.956Z,99826.22
2023-04-29T08:43:44.211Z,99831.34
2023-04-29T08:46:11.458Z,99827.50
2023-04-29T08:48:44.754Z,99823.81
2023-04-29T08:51:13.587Z,99833.78
2023-04-29T08:53:41.082Z,99829.53
2023-04-29T08:56:20.600Z,99831.63
2023-04-29T08:58:54.549Z,99846.19
2023-04-29T09:01:24.204Z,99840.87
2023-04-29T09:03:52.871Z,99846.91
2023-04-29T09:06:21.592Z,99844.34
2023-04-29T09:08:48.791Z,99841.87
2023-04-29T09:11:16.211Z,99849.97
2023-04-29T09:13:43.341Z,99840.59
2023-04-29T09:16:11.876Z,99849.59
2023-04-29T09:18:43.873Z,99848.72
2023-04-29T09:21:18.078Z,99842.88
2023-04-29T09:23:47.019Z,99841.50
2023-04-29T09:26:14.505Z,99842.84
2023-04-29T09:28:43.801Z,99842.16
2023-04-29T09:31:12.075Z,99839.63
2023-04-29T09:33:55.133Z,99845.88
2023-04-29T09:36:42.211Z,99837.44
2023-04-29T09:39:12.918Z,99843.25
2023-04-29T09:41:40.469Z,99847.09
2023-04-29T09:44:08.127Z,99837.84
2023-04-29T09:46:36.813Z,99839.19
2023-04-29T09:49:07.247Z,99834.25
2023-04-29T09:51:34.581Z,99836.03
2023-04-29T09:54:03.131Z,99831.88
2023-04-29T09:56:34.695Z,99828.47
2023-04-29T09:59:10.910Z,99827.94
2023-04-29T10:01:39.453Z,99826.47
2023-04-29T10:04:08.561Z,99826.78
2023-04-29T10:06:35.775Z,99831.25
2023-04-29T10:09:02.981Z,99830.16
2023-04-29T10:11:31.508Z,99831.53
2023-04-29T10:13:58.673Z,99831.97
2023-04-29T10:16:33.097Z,99826.81
2023-04-29T10:19:01.318Z,99821.59
2023-04-29T10:21:32.228Z,99825.50
2023-04-29T10:24:00.256Z,99818.50
2023-04-29T10:26:28.832Z,99826.53
2023-04-29T10:28:56.569Z,99822.19
2023-04-29T10:31:25.834Z,99810.66
2023-04-29T10:33:56.921Z,99820.28
2023-04-29T10:36:24.410Z,99810.59
2023-04-29T10:38:53.217Z,99799.56
2023-04-29T10:41:21.203Z,99792.53
2023-04-29T10:43:48.807Z,99790.88
2023-04-29T10:46:28.845Z,99777.75
2023-04-29T10:48:57.685Z,99773.37
2023-04-29T10:51:28.905Z,99774.25
2023-04-29T10:54:03.510Z,99768.09
2023-04-29T10:56:37.974Z,99763.72
2023-04-29T10:59:05.731Z,99762.81
2023-04-29T11:01:52.146Z,99759.31
2023-04-29T11:04:20.494Z,99758.38
2023-04-29T11:06:48.497Z,99758.84
2023-04-29T11:09:19.003Z,99753.66
2023-04-29T11:11:54.026Z,99751.88
2023-04-29T11:14:22.417Z,99749.50
2023-04-29T11:17:12.892Z,99749.41
2023-04-29T11:19:46.950Z,99744.88
2023-04-29T11:22:24.092Z,99738.31
2023-04-29T11:24:56.191Z,99741.31
2023-04-29T11:27:27.819Z,99743.81
2023-04-29T11:29:58.831Z,99731.41
2023-04-29T11:32:52.980Z,99740.53
2023-04-29T11:35:20.447Z,99737.03
2023-04-29T11:37:47.892Z,99734.37
2023-04-29T11:40:15.244Z,99735.69
2023-04-29T11:42:44.098Z,99739.50
2023-04-29T11:45:12.608Z,99741.28
2023-04-29T11:47:43.016Z,99744.25
2023-04-29T11:50:10.523Z,99738.97
2023-04-29T11:52:38.980Z,99739.09
2023-04-29T11:55:06.614Z,99740.81
2023-04-29T11:57:33.808Z,99740.84
2023-04-29T12:00:01.300Z,99744.38
2023-04-29T12:02:32.049Z,99732.91
2023-04-29T12:05:03.393Z,99736.41
2023-04-29T12:07:31.131Z,99732.03
2023-04-29T12:09:58.339Z,99737.34
2023-04-29T12:12:27.582Z,99726.72
2023-04-29T12:14:54.970Z,99728.53
2023-04-29T12:17:22.374Z,99733.72
2023-04-29T12:19:49.955Z,99729.31
2023-04-29T12:22:17.171Z,99718.25
2023-04-29T12:24:44.419Z,99719.03
2023-04-29T12:27:11.831Z,99723.66
2023-04-29T12:29:40.603Z,99724.53
2023-04-29T12:32:08.558Z,99714.88
2023-04-29T12:34:36.088Z,99718.09
2023-04-29T12:37:03.564Z,99717.56
2023-04-29T12:39:30.847Z,99707.94
2023-04-29T12:41:58.572Z,99715.78
2023-04-29T12:44:25.897Z,99707.66
2023-04-29T12:46:58.457Z,99697.09
2023-04-29T12:49:26.121Z,99696.03
2023-04-29T12:51:53.283Z,99696.59
2023-04-29T12:54:20.651Z,99700.94
2023-04-29T12:56:49.917Z,99694.31
2023-04-29T12:59:17.245Z,99694.19
2023-04-29T13:01:44.455Z,99684.53
2023-04-29T13:04:12.563Z,99689.41
2023-04-29T13:06:41.859Z,99681.06
2023-04-29T13:09:17.927Z,99669.97
2023-04-29T13:11:46.522Z,99672.13
2023-04-29T13:14:13.660Z,99672.16
2023-04-29T13:16:41.185Z,99671.66
2023-04-29T13:19:24.719Z,99684.44
2023-04-29T13:21:55.913Z,99670.44
2023-04-29T13:24:23.907Z,99667.63
2023-04-29T13:26:52.591Z,99665.37
2023-04-29T13:29:20.043Z,99669.38
2023-04-29T13:31:47.604Z,99658.37
2023-04-29T13:34:14.868Z,99648.66
2023-04-29T13:36:42.110Z,99648.66
2023-04-29T13:39:10.505Z,99645.13
2023-04-29T13:41:37.694Z,99645.69
2023-04-29T13:44:07.560Z,99637.81
2023-04-29T13:46:47.597Z,99640.47
2023-04-29T13:59:40.095Z,99634.28
2023-04-29T14:04:33.505Z,99634.41
2023-04-29T14:07:00.835Z,99642.25
2023-04-29T14:09:28.032Z,99638.19
2023-04-29T14:11:55.488Z,99638.91
2023-04-29T14:14:22.635Z,99629.34
2023-04-29T14:16:49.892Z,99633.31
2023-04-29T14:19:17.362Z,99624.19
2023-04-29T14:21:44.546Z,99621.69
2023-04-29T14:24:11.705Z,99620.06
2023-04-29T14:26:39.119Z,99613.72
2023-04-29T14:29:06.314Z,99621.56
2023-04-29T14:31:38.100Z,99615.81
2023-04-29T14:34:05.738Z,99627.59
2023-04-29T14:36:32.900Z,99620.59
2023-04-29T14:39:00.809Z,99616.03
2023-04-29T14:41:28.235Z,99617.81
2023-04-29T14:43:55.421Z,99623.19
2023-04-29T14:46:23.546Z,99622.31
2023-04-29T14:48:50.966Z,99617.91
2023-04-29T14:51:18.083Z,99627.47
2023-04-29T14:53:45.238Z,99623.09
2023-04-29T14:56:12.745Z,99629.53
2023-04-29T14:58:40.598Z,99625.31
2023-04-29T15:01:08.109Z,99634.81
2023-04-29T15:03:43.581Z,99633.97
2023-04-29T15:06:12.244Z,99633.97
2023-04-29T15:08:39.969Z,99628.78
2023-04-29T15:11:07.198Z,99626.75
2023-04-29T15:13:34.423Z,99634.72
2023-04-29T15:16:01.898Z,99626.97
2023-04-29T15:18:29.082Z,99613.31
2023-04-29T15:20:56.219Z,99623.66
2023-04-29T15:23:23.681Z,99626.63
2023-04-29T15:25:51.028Z,99625.75
2023-04-29T15:28:18.178Z,99629.31
2023-04-29T15:30:45.662Z,99624.12
2023-04-29T15:33:12.827Z,99622.41
2023-04-29T15:35:40.129Z,99607.44
2023-04-29T15:38:07.854Z,99613.59
2023-04-29T15:40:35.032Z,99617.31
2023-04-29T15:43:02.165Z,99616.41
2023-04-29T15:45:29.582Z,99608.28
2023-04-29T15:47:56.870Z,99616.28
2023-04-29T15:50:24.008Z,99608.25
2023-04-29T15:52:55.812Z,99609.91
2023-04-29T15:55:23.370Z,99606.38
2023-04-29T15:57:51.476Z,99602.97
2023-04-29T16:00:19.167Z,99602.88
2023-04-29T16:02:46.653Z,99607.56
2023-04-29T16:05:13.871Z,99604.94
2023-04-29T16:07:40.996Z,99605.97
2023-04-29T16:10:09.488Z,99598.66
2023-04-29T16:12:37.127Z,99610.41
2023-04-29T16:15:05.016Z,99613.22
2023-04-29T16:17:32.611Z,99618.59
2023-04-29T16:19:59.877Z,99620.31
2023-04-29T16:22:28.022Z,99615.97
2023-04-29T16:24:55.538Z,99612.47
2023-04-29T16:27:22.697Z,99614.41
2023-04-29T16:29:49.902Z,99614.28
2023-04-29T16:32:17.289Z,99615.97
2023-04-29T16:34:44.433Z,99612.47
2023-04-29T16:37:12.674Z,99607.19
2023-04-29T16:39:40.711Z,99612.47
2023-04-29T16:42:07.880Z,99612.44
2023-04-29T16:44:35.078Z,99606.44
2023-04-29T16:47:03.123Z,99614.31
2023-04-29T16:49:30.527Z,99610.88
2023-04-29T16:51:58.014Z,99610.75
2023-04-29T16:54:26.333Z,99609.91
2023-04-29T16:56:53.726Z,99603.72
2023-04-29T16:59:20.913Z,99609.03
2023-04-29T17:01:48.400Z,99612.56
2023-04-29T17:04:15.885Z,99616.97
2023-04-29T17:06:43.464Z,99614.38
2023-04-29T17:09:11.359Z,99617.91
2023-04-29T17:11:38.501Z,99622.28
2023-04-29T17:14:05.711Z,99627.56
2023-04-29T17:16:33.268Z,99620.53
2023-04-29T17:19:00.433Z,99624.03
2023-04-29T17:21:30.636Z,99620.56
2023-04-29T17:23:59.038Z,99634.59
2023-04-29T17:26:26.595Z,99631.97
2023-04-29T17:28:53.936Z,99640.78
2023-04-29T17:31:25.547Z,99632.88
2023-04-29T17:34:05.345Z,99630.22
2023-04-29T17:36:33.371Z,99634.59
2023-04-29T17:39:00.915Z,99639.88
2023-04-29T17:41:28.558Z,99633.72
2023-04-29T17:43:56.224Z,99644.19
2023-04-29T17:46:23.962Z,99652.06
2023-04-29T17:48:51.604Z,99648.50
2023-04-29T17:51:19.141Z,99653.75
2023-04-29T17:53:46.431Z,99660.75
2023-04-29T17:56:13.955Z,99655.41
2023-04-29T17:58:42.428Z,99657.13
2023-04-29T18:01:12.035Z,99658.00
2023-04-29T18:03:39.826Z,99659.75
2023-04-29T18:06:07.485Z,99658.84
2023-04-29T18:10:02.522Z,99659.78
2023-04-29T18:12:30.151Z,99659.78
2023-04-29T18:14:57.356Z,99663.78
2023-04-29T18:17:24.643Z,99667.16
2023-04-29T18:19:52.342Z,99670.63
2023-04-29T18:22:19.718Z,99671.47
2023-04-29T18:24:48.817Z,99673.13
2023-04-29T18:27:16.475Z,99673.97
2023-04-29T18:29:44.728Z,99673.09
2023-04-29T18:32:12.073Z,99687.91
2023-04-29T18:34:39.734Z,99690.38
2023-04-29T18:37:07.386Z,99687.72
2023-04-29T18:39:34.822Z,99698.97
2023-04-29T18:42:04.168Z,99703.34
2023-04-29T18:44:31.755Z,99711.09
2023-04-29T18:46:59.092Z,99711.03
2023-04-29T18:49:26.567Z,99710.03
2023-04-29T18:51:53.717Z,99712.69
2023-04-29T18:54:21.113Z,99713.31
2023-04-29T18:56:50.021Z,99715.88
2023-04-29T18:59:21.131Z,99724.22
2023-04-29T19:01:49.155Z,99729.00
2023-04-29T19:04:17.403Z,99726.75
2023-04-29T19:06:45.015Z,99724.00
2023-04-29T19:09:13.685Z,99727.59
2023-04-29T19:11:41.718Z,99731.84
2023-04-29T19:14:09.019Z,99733.22
2023-04-29T19:16:37.320Z,99732.16
2023-04-29T19:19:05.804Z,99737.16
2023-04-29T19:21:34.059Z,99729.97
2023-04-29T19:24:01.814Z,99738.59
2023-04-29T19:26:31.683Z,99741.13
2023-04-29T19:29:03.911Z,99740.78
2023-04-29T19:31:31.850Z,99740.88
2023-04-29T19:34:00.037Z,99733.66
2023-04-29T19:36:27.388Z,99744.34
2023-04-29T19:38:55.657Z,99736.28
2023-04-29T19:41:24.118Z,99735.69
2023-04-29T19:43:51.854Z,99737.31
2023-04-29T19:46:19.641Z,99742.97
2023-04-29T19:48:47.263Z,99745.69
2023-04-29T19:51:15.596Z,99744.66
2023-04-29T19:53:43.281Z,99754.50
2023-04-29T19:56:10.707Z,99750.13
2023-04-29T19:58:38.302Z,99756.66
2023-04-29T20:01:06.230Z,99755.13
2023-04-29T20:03:38.420Z,99753.09
2023-04-29T20:06:05.808Z,99746.72
2023-04-29T20:08:33.856Z,99751.06
2023-04-29T20:11:02.612Z,99753.91
2023-04-29T20:13:29.961Z,99752.22
2023-04-29T20:15:57.190Z,99757.22
2023-04-29T20:18:24.792Z,99761.50
2023-04-29T20:20:52.071Z,99763.81
2023-04-29T20:23:19.804Z,99756.94
2023-04-29T20:25:47.558Z,99754.56
2023-04-29T20:28:14.770Z,99758.91
2023-04-29T20:30:41.918Z,99763.91
2023-04-29T20:33:09.568Z,99755.50
2023-04-29T20:35:36.790Z,99757.59
2023-04-29T20:38:03.968Z,99750.88
2023-04-29T20:40:32.644Z,99750.37
2023-04-29T20:43:00.302Z,99754.91
2023-04-29T20:45:27.596Z,99750.69
2023-04-29T20:47:55.032Z,99752.66
2023-04-29T20:50:22.734Z,99753.41
2023-04-29T20:52:50.334Z,99755.84
2023-04-29T20:55:18.822Z,99764.44
2023-04-29T20:57:46.035Z,99766.75
2023-04-29T21:00:14.245Z,99763.81
2023-04-29T21:02:41.713Z,99772.28
2023-04-29T21:05:10.209Z,99770.38
2023-04-29T21:07:37.587Z,99771.44
2023-04-29T21:10:05.195Z,99777.06
2023-04-29T21:12:32.452Z,99775.72
2023-04-29T21:14:59.622Z,99779.94
2023-04-29T21:17:27.053Z,99791.19
2023-04-29T21:19:54.500Z,99789.44
2023-04-29T21:22:21.771Z,99786.72
2023-04-29T21:24:49.198Z,99785.75
2023-04-29T21:27:17.200Z,99784.06
2023-04-29T21:29:44.382Z,99784.31
2023-04-29T21:32:11.775Z,99785.41
2023-04-29T21:34:39.005Z,99789.09
2023-04-29T21:37:06.265Z,99787.59
2023-04-29T21:39:33.778Z,99792.97
2023-04-29T21:42:03.004Z,99784.56
2023-04-29T21:44:30.516Z,99791.94
2023-04-29T21:46:59.843Z,99797.94
2023-04-29T21:49:27.793Z,99790.00
2023-04-29T21:51:55.158Z,99794.41
2023-04-29T21:54:22.707Z,99794.16
2023-04-29T21:56:49.864Z,99794.22
2023-04-29T21:59:17.158Z,99798.34
2023-04-29T22:01:59.821Z,99799.22
2023-04-29T22:04:30.185Z,99790.75
2023-04-29T22:06:57.609Z,99794.03
2023-04-29T22:09:24.765Z,99790.78
2023-04-29T22:11:52.499Z,99790.38
2023-04-29T22:14:19.664Z,99780.78
2023-04-29T22:16:46.844Z,99778.63
2023-04-29T22:19:14.311Z,99788.81
2023-04-29T22:21:42.978Z,99788.66
2023-04-29T22:24:10.265Z,99793.13
2023-04-29T22:26:38.086Z,99790.59
2023-04-29T22:29:05.288Z,99787.44
2023-04-29T22:31:32.489Z,99780.69
2023-04-29T22:34:00.000Z,99789.19
2023-04-29T22:36:27.348Z,99785.56
2023-04-29T22:38:54.471Z,99780.72
2023-04-29T22:41:21.948Z,99794.19
2023-04-29T22:43:49.112Z,99801.72
2023-04-29T22:46:16.291Z,99789.66
2023-04-29T22:48:43.831Z,99791.12
2023-04-29T22:51:14.726Z,99791.44
2023-04-29T22:53:43.446Z,99797.97
2023-04-29T22:56:11.875Z,99792.81
2023-04-29T22:58:39.587Z,99795.50
2023-04-29T23:01:06.774Z,99790.91
2023-04-29T23:03:34.316Z,99797.69
2023-04-29T23:06:02.542Z,99797.63
2023-04-29T23:08:29.923Z,99798.81
2023-04-29T23:10:57.388Z,99797.94
2023-04-29T23:13:24.524Z,99801.09
2023-04-29T23:15:52.319Z,99798.94
2023-04-29T23:18:19.827Z,99802.94
2023-04-29T23:20:47.780Z,99800.72
2023-04-29T23:23:14.957Z,99797.53
2023-04-29T23:25:42.584Z,99802.28
2023-04-29T23:28:09.765Z,99802.16
2023-04-29T23:30:36.917Z,99796.03
2023-04-29T23:33:04.379Z,99798.91
2023-04-29T23:35:31.786Z,99792.03
2023-04-29T23:37:59.146Z,99805.88
2023-04-29T23:40:26.610Z,99800.03
2023-04-29T23:42:53.886Z,99791.41
2023-04-29T23:45:21.035Z,99789.72
2023-04-29T23:47:48.534Z,99790.75
2023-04-29T23:50:15.979Z,99789.03
2023-04-29T23:52:43.148Z,99791.75
2023-04-29T23:55:10.553Z,99791.59
2023-04-29T23:57:37.749Z,99793.31
